createdAt,value
2022-08-16T00:01:35.658Z,23.94
2022-08-16T00:04:15.311Z,23.90
2022-08-16T00:06:46.351Z,24.23
2022-08-16T00:09:17.238Z,24.03
2022-08-16T00:11:52.729Z,23.99
2022-08-16T00:14:28.974Z,24.30
2022-08-16T00:17:18.194Z,24.00
2022-08-16T00:23:12.842Z,23.02
2022-08-16T00:26:33.593Z,23.94
2022-08-16T00:28:40.765Z,23.87
2022-08-16T00:31:10.485Z,23.80
2022-08-16T00:33:41.020Z,23.70
2022-08-16T00:36:22.381Z,23.79
2022-08-16T00:38:53.986Z,23.74
2022-08-16T00:41:27.065Z,23.64
2022-08-16T00:43:57.368Z,23.69
2022-08-16T00:46:35.321Z,23.76
2022-08-16T00:49:17.490Z,23.87
2022-08-16T00:51:55.226Z,23.87
2022-08-16T00:54:29.630Z,23.61
2022-08-16T00:57:02.439Z,23.64
2022-08-16T00:59:36.168Z,23.64
2022-08-16T01:02:31.703Z,23.25
2022-08-16T01:05:11.262Z,23.53
2022-08-16T01:07:51.788Z,23.38
2022-08-16T01:10:31.220Z,23.18
2022-08-16T01:13:04.645Z,23.17
2022-08-16T01:15:36.982Z,23.02
2022-08-16T01:18:40.493Z,23.06
2022-08-16T01:21:22.160Z,23.05
2022-08-16T01:24:52.890Z,23.06
2022-08-16T01:27:17.513Z,23.13
2022-08-16T01:29:57.329Z,23.27
2022-08-16T01:32:34.183Z,22.97
2022-08-16T01:35:17.531Z,22.86
2022-08-16T01:37:54.624Z,23.39
2022-08-16T01:40:36.686Z,23.21
2022-08-16T01:43:09.560Z,23.07
2022-08-16T01:45:42.166Z,23.01
2022-08-16T01:48:20.196Z,23.46
2022-08-16T01:51:15.493Z,23.05
2022-08-16T01:53:55.451Z,23.07
2022-08-16T01:56:38.247Z,23.15
2022-08-16T01:59:15.751Z,23.10
2022-08-16T02:01:52.871Z,23.32
2022-08-16T02:04:49.371Z,23.09
2022-08-16T02:07:26.339Z,23.18
2022-08-16T02:09:59.800Z,23.11
2022-08-16T02:12:51.228Z,23.06
2022-08-16T02:15:35.351Z,23.11
2022-08-16T02:18:07.779Z,23.15
2022-08-16T02:20:53.429Z,23.20
2022-08-16T02:23:26.643Z,23.17
2022-08-16T02:26:02.113Z,23.24
2022-08-16T02:28:39.420Z,23.46
2022-08-16T02:31:18.919Z,22.96
2022-08-16T02:33:50.664Z,23.39
2022-08-16T02:36:42.450Z,22.80
2022-08-16T02:39:23.887Z,22.77
2022-08-16T02:41:56.150Z,23.06
2022-08-16T02:44:29.587Z,23.02
2022-08-16T02:47:00.147Z,23.00
2022-08-16T02:50:36.240Z,23.06
2022-08-16T02:52:24.789Z,22.99
2022-08-16T02:55:01.613Z,22.94
2022-08-16T02:57:31.830Z,22.78
2022-08-16T03:00:33.908Z,22.83
2022-08-16T03:02:58.983Z,22.79
2022-08-16T03:05:31.069Z,22.65
2022-08-16T03:08:03.345Z,22.83
2022-08-16T03:10:39.854Z,22.86
2022-08-16T03:13:12.244Z,22.88
2022-08-16T03:15:46.706Z,22.82
2022-08-16T03:18:34.431Z,22.80
2022-08-16T03:21:10.241Z,22.68
2022-08-16T03:23:44.194Z,22.76
2022-08-16T03:26:15.052Z,22.73
2022-08-16T03:28:47.989Z,22.78
2022-08-16T03:31:21.976Z,22.86
2022-08-16T03:33:52.271Z,22.82
2022-08-16T03:36:31.120Z,22.73
2022-08-16T03:39:06.746Z,22.58
2022-08-16T03:41:50.084Z,22.20
2022-08-16T03:44:44.268Z,22.37
2022-08-16T03:47:13.196Z,22.36
2022-08-16T03:49:51.256Z,22.32
2022-08-16T03:52:23.479Z,22.09
2022-08-16T03:54:59.330Z,22.36
2022-08-16T03:57:32.120Z,22.41
2022-08-16T04:00:20.692Z,22.53
2022-08-16T04:03:11.575Z,22.38
2022-08-16T04:05:47.371Z,22.21
2022-08-16T04:08:23.111Z,22.50
2022-08-16T04:10:57.863Z,22.53
2022-08-16T04:13:58.919Z,22.62
2022-08-16T04:16:26.768Z,22.53
2022-08-16T04:19:06.512Z,22.62
2022-08-16T04:21:45.875Z,22.62
2022-08-16T04:24:18.434Z,22.31
2022-08-16T04:26:49.631Z,22.57
2022-08-16T04:29:23.860Z,22.41
2022-08-16T04:32:13.829Z,22.55
2022-08-16T04:34:48.167Z,22.42
2022-08-16T04:37:17.889Z,22.32
2022-08-16T04:39:57.017Z,22.15
2022-08-16T04:42:29.781Z,22.10
2022-08-16T04:45:07.013Z,22.17
2022-08-16T04:47:37.895Z,22.17
2022-08-16T04:50:19.205Z,22.03
2022-08-16T04:53:07.664Z,22.11
2022-08-16T04:55:40.191Z,22.18
2022-08-16T04:58:44.723Z,22.37
2022-08-16T05:01:08.022Z,22.61
2022-08-16T05:03:42.051Z,22.52
2022-08-16T05:06:40.138Z,22.74
2022-08-16T05:09:16.365Z,22.70
2022-08-16T05:11:46.441Z,22.95
2022-08-16T05:14:20.263Z,22.96
2022-08-16T05:17:08.897Z,22.97
2022-08-16T05:19:46.508Z,22.93
2022-08-16T05:22:30.237Z,22.99
2022-08-16T05:25:08.760Z,22.98
2022-08-16T05:27:43.023Z,23.06
2022-08-16T05:30:34.915Z,22.94
2022-08-16T05:33:16.187Z,22.66
2022-08-16T05:35:54.878Z,22.87
2022-08-16T05:38:40.321Z,23.06
2022-08-16T05:41:17.634Z,23.14
2022-08-16T05:43:49.251Z,23.43
2022-08-16T05:46:30.546Z,23.50
2022-08-16T05:49:08.865Z,23.63
2022-08-16T05:51:42.315Z,23.68
2022-08-16T05:54:24.730Z,23.55
2022-08-16T05:56:55.878Z,23.62
2022-08-16T05:59:26.975Z,23.74
2022-08-16T06:01:58.028Z,23.85
2022-08-16T06:04:37.876Z,23.97
2022-08-16T06:07:26.188Z,24.04
2022-08-16T06:10:05.342Z,24.15
2022-08-16T06:12:37.799Z,24.27
2022-08-16T06:15:15.045Z,24.59
2022-08-16T06:17:47.354Z,24.77
2022-08-16T06:20:35.662Z,24.69
2022-08-16T06:23:17.086Z,24.58
2022-08-16T06:26:11.288Z,24.43
2022-08-16T06:28:44.743Z,24.27
2022-08-16T06:31:24.759Z,24.30
2022-08-16T06:33:55.659Z,24.27
2022-08-16T06:36:27.090Z,24.37
2022-08-16T06:39:15.229Z,24.37
2022-08-16T06:42:06.487Z,24.48
2022-08-16T06:44:59.389Z,24.28
2022-08-16T06:47:53.396Z,24.49
2022-08-16T06:50:29.811Z,24.63
2022-08-16T06:53:08.678Z,24.72
2022-08-16T06:55:43.301Z,24.87
2022-08-16T06:58:21.910Z,24.81
2022-08-16T07:00:54.001Z,24.74
2022-08-16T07:03:27.508Z,25.08
2022-08-16T07:06:00.000Z,25.16
2022-08-16T07:08:43.881Z,25.10
2022-08-16T07:11:13.664Z,25.23
2022-08-16T07:14:00.568Z,25.33
2022-08-16T07:16:44.429Z,25.49
2022-08-16T07:19:16.899Z,25.68
2022-08-16T07:21:59.524Z,25.83
2022-08-16T07:24:33.860Z,25.91
2022-08-16T07:27:16.199Z,25.73
2022-08-16T07:29:49.553Z,25.67
2022-08-16T07:32:29.744Z,25.67
2022-08-16T07:35:01.943Z,25.71
2022-08-16T07:37:31.828Z,25.64
2022-08-16T07:40:31.839Z,25.69
2022-08-16T07:43:10.533Z,25.72
2022-08-16T07:45:44.740Z,25.75
2022-08-16T07:48:17.071Z,25.85
2022-08-16T07:50:57.767Z,26.21
2022-08-16T07:53:30.902Z,26.18
2022-08-16T07:56:04.475Z,26.31
2022-08-16T07:58:42.320Z,26.38
2022-08-16T08:01:19.519Z,26.41
2022-08-16T08:04:00.526Z,26.50
2022-08-16T08:06:37.430Z,26.09
2022-08-16T08:09:13.205Z,26.36
2022-08-16T08:12:00.851Z,26.55
2022-08-16T08:14:35.532Z,26.56
2022-08-16T08:17:08.490Z,26.89
2022-08-16T08:19:40.474Z,27.00
2022-08-16T08:22:19.149Z,26.93
2022-08-16T08:24:59.161Z,27.01
2022-08-16T08:27:35.191Z,27.05
2022-08-16T08:30:50.188Z,26.79
2022-08-16T08:33:01.177Z,27.22
2022-08-16T08:35:35.874Z,27.18
2022-08-16T08:38:08.889Z,27.02
2022-08-16T08:40:45.864Z,27.46
2022-08-16T08:43:18.103Z,27.49
2022-08-16T08:45:57.214Z,27.61
2022-08-16T08:48:33.431Z,27.65
2022-08-16T08:51:09.198Z,27.72
2022-08-16T08:53:58.021Z,27.80
2022-08-16T08:56:35.028Z,27.77
2022-08-16T08:59:34.552Z,27.52
2022-08-16T09:02:12.022Z,27.80
2022-08-16T09:04:49.830Z,27.98
2022-08-16T09:07:23.964Z,27.93
2022-08-16T09:10:06.099Z,27.45
2022-08-16T09:12:37.737Z,27.61
2022-08-16T09:15:36.555Z,27.70
2022-08-16T09:18:25.104Z,28.04
2022-08-16T09:21:00.775Z,28.17
2022-08-16T09:23:36.537Z,28.01
2022-08-16T09:26:44.638Z,28.24
2022-08-16T09:29:13.489Z,28.35
2022-08-16T09:31:47.316Z,28.41
2022-08-16T09:34:23.454Z,28.54
2022-08-16T09:36:57.996Z,28.78
2022-08-16T09:39:41.125Z,28.65
2022-08-16T09:42:14.396Z,28.85
2022-08-16T09:45:09.132Z,28.90
2022-08-16T09:47:56.093Z,29.00
2022-08-16T09:50:37.135Z,29.07
2022-08-16T09:53:16.654Z,28.98
2022-08-16T09:55:53.442Z,28.53
2022-08-16T09:58:37.714Z,28.69
2022-08-16T10:01:11.804Z,28.79
2022-08-16T10:04:02.575Z,28.96
2022-08-16T10:06:34.152Z,28.96
2022-08-16T10:09:10.729Z,28.96
2022-08-16T10:11:55.158Z,29.04
2022-08-16T10:14:33.100Z,29.26
2022-08-16T10:17:06.268Z,29.39
2022-08-16T10:19:36.737Z,29.23
2022-08-16T10:22:09.591Z,29.33
2022-08-16T10:24:55.753Z,29.32
2022-08-16T10:27:56.748Z,29.44
2022-08-16T10:30:25.700Z,29.73
2022-08-16T10:32:58.062Z,29.61
2022-08-16T10:35:32.657Z,29.64
2022-08-16T10:38:06.855Z,29.41
2022-08-16T10:40:45.532Z,29.68
2022-08-16T10:43:16.809Z,29.69
2022-08-16T10:46:00.573Z,29.93
2022-08-16T10:48:38.973Z,29.82
2022-08-16T10:51:10.777Z,29.60
2022-08-16T10:53:41.770Z,29.68
2022-08-16T10:59:38.969Z,29.77
2022-08-16T11:05:22.938Z,29.76
2022-08-16T11:07:54.441Z,29.99
2022-08-16T11:19:13.440Z,29.64
2022-08-16T11:24:43.184Z,30.12
2022-08-16T11:27:20.381Z,30.04
2022-08-16T11:29:55.834Z,30.30
2022-08-16T11:32:29.985Z,30.36
2022-08-16T11:35:13.237Z,30.32
2022-08-16T11:40:40.640Z,30.47
2022-08-16T11:43:16.961Z,30.51
2022-08-16T11:45:53.921Z,30.78
2022-08-16T11:48:25.433Z,30.70
2022-08-16T11:50:55.595Z,30.86
2022-08-16T11:53:28.326Z,30.82
2022-08-16T11:56:06.230Z,30.82
2022-08-16T11:58:42.185Z,30.77
2022-08-16T12:01:15.555Z,30.90
2022-08-16T12:03:45.864Z,31.08
2022-08-16T12:06:25.199Z,31.00
2022-08-16T12:09:02.091Z,30.98
2022-08-16T12:11:33.311Z,30.71
2022-08-16T12:14:04.644Z,30.92
2022-08-16T12:16:38.433Z,31.04
2022-08-16T12:19:13.873Z,31.13
2022-08-16T12:21:58.950Z,31.24
2022-08-16T12:24:30.425Z,31.41
2022-08-16T12:27:06.801Z,31.59
2022-08-16T12:29:40.092Z,31.10
2022-08-16T12:32:35.774Z,31.41
2022-08-16T12:35:03.146Z,31.42
2022-08-16T12:37:33.505Z,31.62
2022-08-16T12:40:22.438Z,31.89
2022-08-16T12:42:59.456Z,31.88
2022-08-16T12:45:33.555Z,31.90
2022-08-16T12:48:34.021Z,31.99
2022-08-16T12:51:04.979Z,32.55
2022-08-16T12:53:44.162Z,32.15
2022-08-16T12:56:15.502Z,32.17
2022-08-16T12:58:51.937Z,32.16
2022-08-16T13:01:24.697Z,31.96
2022-08-16T13:04:11.421Z,32.08
2022-08-16T13:06:43.108Z,33.23
2022-08-16T13:09:26.515Z,33.16
2022-08-16T13:12:04.337Z,32.55
2022-08-16T13:14:41.097Z,32.63
2022-08-16T13:17:19.048Z,32.59
2022-08-16T13:20:11.069Z,32.42
2022-08-16T13:22:45.208Z,32.60
2022-08-16T13:25:21.330Z,32.41
2022-08-16T13:28:03.505Z,32.81
2022-08-16T13:30:41.651Z,32.91
2022-08-16T13:33:15.773Z,32.96
2022-08-16T13:35:55.986Z,32.80
2022-08-16T13:38:36.434Z,32.55
2022-08-16T13:41:09.813Z,32.54
2022-08-16T13:43:40.731Z,32.63
2022-08-16T13:46:11.054Z,32.75
2022-08-16T13:48:44.264Z,32.82
2022-08-16T13:51:20.311Z,32.85
2022-08-16T13:53:54.926Z,32.82
2022-08-16T13:56:31.754Z,32.76
2022-08-16T13:59:16.506Z,32.99
2022-08-16T14:01:55.710Z,33.27
2022-08-16T14:04:31.242Z,33.15
2022-08-16T14:07:05.799Z,33.07
2022-08-16T14:09:36.978Z,33.16
2022-08-16T14:12:17.876Z,33.17
2022-08-16T14:14:47.969Z,33.15
2022-08-16T14:17:17.905Z,33.01
2022-08-16T14:19:47.962Z,33.13
2022-08-16T14:22:30.713Z,33.20
2022-08-16T14:25:07.075Z,33.17
2022-08-16T14:27:39.099Z,32.99
2022-08-16T14:30:15.352Z,32.99
2022-08-16T14:32:46.810Z,32.77
2022-08-16T14:35:29.312Z,32.73
2022-08-16T14:38:18.363Z,33.00
2022-08-16T14:40:55.190Z,32.87
2022-08-16T14:43:29.752Z,32.89
2022-08-16T14:46:00.819Z,33.12
2022-08-16T14:48:31.473Z,32.86
2022-08-16T14:51:01.588Z,32.55
2022-08-16T14:53:35.085Z,32.46
2022-08-16T14:56:06.964Z,32.34
2022-08-16T14:58:38.278Z,32.22
2022-08-16T15:01:09.912Z,32.18
2022-08-16T15:03:42.216Z,32.22
2022-08-16T15:06:14.781Z,32.40
2022-08-16T15:08:48.866Z,32.44
2022-08-16T15:11:20.683Z,32.38
2022-08-16T15:13:51.708Z,32.65
2022-08-16T15:16:22.404Z,32.74
2022-08-16T15:18:58.921Z,32.73
2022-08-16T15:21:29.146Z,32.65
2022-08-16T15:24:02.863Z,32.72
2022-08-16T15:26:45.279Z,33.19
2022-08-16T15:29:17.093Z,32.87
2022-08-16T15:31:48.318Z,33.27
2022-08-16T15:34:19.034Z,34.10
2022-08-16T15:36:52.044Z,34.59
2022-08-16T15:39:39.934Z,33.92
2022-08-16T15:42:28.832Z,33.58
2022-08-16T15:45:12.074Z,34.41
2022-08-16T15:47:55.804Z,32.76
2022-08-16T15:50:38.324Z,33.43
2022-08-16T15:53:27.390Z,33.09
2022-08-16T15:56:08.871Z,31.79
2022-08-16T15:58:46.855Z,32.43
2022-08-16T16:01:34.944Z,32.40
2022-08-16T19:05:04.907Z,29.19
2022-08-16T19:07:34.630Z,29.37
2022-08-16T19:10:04.951Z,29.30
2022-08-16T19:12:38.833Z,29.17
2022-08-16T19:15:15.815Z,29.16
2022-08-16T19:17:46.616Z,28.89
2022-08-16T19:20:21.430Z,28.98
2022-08-16T19:23:10.941Z,28.90
2022-08-16T19:25:49.586Z,30.59
2022-08-16T19:28:50.971Z,29.31
2022-08-16T22:36:28.575Z,24.08
2022-08-16T22:38:59.607Z,26.52
